| time (UTC) | temp C | wind direction | speed KPH | gust KPH | rain 1hr cm | rain 24hr cm | rain mn cm | humidity % | barometer mb |
| 20260906231523 | 22 | 276 | 3.2 | 6.4 | 0.00 | 0.00 | 0.00 | 60 | 1014.1 |
| 20260906230536 | 22 | 263 | 3.2 | 12.9 | 0.00 | 0.00 | 0.00 | 58 | 1014.0 |
| 20260906225519 | 21 | 265 | 4.8 | 9.7 | 0.00 | 0.00 | 0.00 | 60 | 1014.1 |
| 20260906224523 | 21 | 258 | 4.8 | 9.7 | 0.00 | 0.00 | 0.00 | 61 | 1014.2 |
| 20260906223516 | 21 | 252 | 3.2 | 8.0 | 0.00 | 0.00 | 0.00 | 62 | 1014.3 |
| 20260906222519 | 21 | 269 | 4.8 | 11.3 | 0.00 | 0.00 | 0.00 | 64 | 1014.4 |
| 20260906221542 | 20 | 269 | 3.2 | 6.4 | 0.00 | 0.00 | 0.00 | 66 | 1014.4 |
| 20260906220516 | 20 | 264 | 3.2 | 8.0 | 0.00 | 0.00 | 0.00 | 68 | 1014.4 |
| 20260906215518 | 20 | 270 | 3.2 | 8.0 | 0.00 | 0.00 | 0.00 | 70 | 1014.3 |
| 20260906214522 | 20 | 269 | 4.8 | 8.0 | 0.00 | 0.00 | 0.00 | 72 | 1014.6 |
| 20260906213525 | 19 | 266 | 3.2 | 8.0 | 0.00 | 0.00 | 0.00 | 75 | 1014.8 |
| 20260906212518 | 19 | 269 | 3.2 | 6.4 | 0.00 | 0.00 | 0.00 | 75 | 1014.7 |
| 20260906211521 | 19 | 247 | 3.2 | 6.4 | 0.00 | 0.00 | 0.00 | 77 | 1014.8 |
| 20260906210525 | 18 | 267 | 3.2 | 9.7 | 0.00 | 0.00 | 0.00 | 77 | 1014.9 |
| 20260906205518 | 18 | 259 | 3.2 | 8.0 | 0.00 | 0.00 | 0.00 | 79 | 1015.0 |
| 20260906204542 | 18 | 253 | 3.2 | 6.4 | 0.00 | 0.00 | 0.00 | 78 | 1015.2 |
| 20260906203524 | 18 | 254 | 4.8 | 9.7 | 0.00 | 0.00 | 0.00 | 80 | 1015.3 |
| 20260906202518 | 18 | 262 | 4.8 | 9.7 | 0.00 | 0.00 | 0.00 | 79 | 1015.4 |
| 20260906201521 | 18 | 268 | 4.8 | 11.3 | 0.00 | 0.00 | 0.00 | 78 | 1015.4 |
| 20260906195517 | 18 | 275 | 3.2 | 6.4 | 0.00 | 0.00 | 0.00 | 79 | 1015.6 |
| 20260906194601 | 17 | 264 | 3.2 | 11.3 | 0.00 | 0.00 | 0.00 | 80 | 1015.8 |
| 20260906193524 | 17 | 253 | 3.2 | 9.7 | 0.00 | 0.00 | 0.00 | 80 | 1016.0 |
| 20260906192518 | 17 | 268 | 4.8 | 11.3 | 0.00 | 0.00 | 0.00 | 81 | 1015.9 |
| 20260906191520 | 17 | 264 | 4.8 | 12.9 | 0.00 | 0.00 | 0.00 | 81 | 1016.0 |
| 20260906190524 | 17 | 264 | 4.8 | 9.7 | 0.00 | 0.00 | 0.00 | 79 | 1016.0 |
| 20260906185517 | 17 | 276 | 4.8 | 9.7 | 0.00 | 0.00 | 0.00 | 78 | 1016.2 |
| 20260906184520 | 17 | 272 | 4.8 | 9.7 | 0.00 | 0.00 | 0.00 | 77 | 1016.3 |
| 20260906183524 | 17 | 272 | 4.8 | 9.7 | 0.00 | 0.00 | 0.00 | 76 | 1016.4 |
| 20260906182557 | 17 | 270 | 3.2 | 6.4 | 0.00 | 0.00 | 0.00 | 76 | 1016.5 |
| 20260906181520 | 17 | 270 | 3.2 | 6.4 | 0.00 | 0.00 | 0.00 | 76 | 1016.7 |
| 20260906180523 | 17 | 271 | 6.4 | 9.7 | 0.00 | 0.00 | 0.00 | 74 | 1016.5 |
| 20260906175517 | 17 | 292 | 3.2 | 6.4 | 0.00 | 0.00 | 0.00 | 74 | 1016.7 |
| 20260906174519 | 16 | 271 | 3.2 | 6.4 | 0.00 | 0.00 | 0.00 | 74 | 1016.7 |
| 20260906173523 | 16 | 268 | 3.2 | 8.0 | 0.00 | 0.00 | 0.00 | 72 | 1016.7 |
| 20260906172517 | 16 | 267 | 4.8 | 9.7 | 0.00 | 0.00 | 0.00 | 73 | 1016.8 |
| 20260906171520 | 17 | 260 | 3.2 | 9.7 | 0.00 | 0.00 | 0.00 | 70 | 1017.0 |
| 20260906170523 | 17 | 263 | 1.6 | 6.4 | 0.00 | 0.00 | 0.00 | 67 | 1017.0 |
| 20260906165516 | 17 | 254 | 1.6 | 6.4 | 0.00 | 0.00 | 0.00 | 71 | 1017.0 |
| 20260906164519 | 17 | 103 | 1.6 | 4.8 | 0.00 | 0.00 | 0.00 | 69 | 1017.2 |
| 20260906163522 | 16 | 350 | 0.0 | 3.2 | 0.00 | 0.00 | 0.00 | 74 | 1017.3 |
| 20260906162515 | 15 | 271 | 3.2 | 6.4 | 0.00 | 0.00 | 0.00 | 76 | 1017.3 |
| 20260906161519 | 15 | 275 | 4.8 | 8.0 | 0.00 | 0.00 | 0.00 | 77 | 1017.1 |
| 20260906160522 | 15 | 275 | 4.8 | 8.0 | 0.00 | 0.00 | 0.00 | 75 | 1017.2 |
| 20260906155535 | 16 | 274 | 4.8 | 8.0 | 0.00 | 0.00 | 0.00 | 72 | 1017.2 |
| 20260906154518 | 16 | 276 | 1.6 | 4.8 | 0.00 | 0.00 | 0.00 | 71 | 1017.2 |
| 20260906153522 | 16 | 24 | 1.6 | 3.2 | 0.00 | 0.00 | 0.00 | 73 | 1017.2 |
| 20260906152525 | 15 | 346 | 0.0 | 3.2 | 0.00 | 0.00 | 0.00 | 74 | 1017.3 |
| 20260906151518 | 15 | 145 | 0.0 | 4.8 | 0.00 | 0.00 | 0.00 | 76 | 1017.2 |
| 20260906150521 | 15 | 66 | 1.6 | 4.8 | 0.00 | 0.00 | 0.00 | 78 | 1017.3 |
| 20260906145525 | 15 | 94 | 1.6 | 3.2 | 0.00 | 0.00 | 0.00 | 78 | 1017.2 |
| 20260906144538 | 14 | 125 | 0.0 | 3.2 | 0.00 | 0.00 | 0.00 | 80 | 1017.2 |
| 20260906143521 | 13 | 248 | 0.0 | 3.2 | 0.00 | 0.00 | 0.00 | 85 | 1017.2 |
| 20260906142605 | 12 | 122 | 0.0 | 3.2 | 0.00 | 0.00 | 0.00 | 89 | 1017.1 |
| 20260906141518 | 11 | 0.0 | 0.0 | 0.00 | 0.00 | 0.00 | 92 | 1017.0 | |
| 20260906140521 | 11 | 0.0 | 1.6 | 0.00 | 0.00 | 0.00 | 92 | 1017.0 | |
| 20260906135545 | 11 | 0.0 | 0.0 | 0.00 | 0.00 | 0.00 | 92 | 1017.0 | |
| 20260906134537 | 11 | 0.0 | 0.0 | 0.00 | 0.00 | 0.00 | 92 | 1017.0 | |
| 20260906133520 | 11 | 0.0 | 0.0 | 0.00 | 0.00 | 0.00 | 91 | 1017.0 | |
| 20260906132544 | 11 | 0.0 | 1.6 | 0.00 | 0.00 | 0.00 | 91 | 1017.0 | |
| 20260906131517 | 11 | 0.0 | 1.6 | 0.00 | 0.00 | 0.00 | 90 | 1017.0 | |
| 20260906130520 | 11 | 75 | 0.0 | 1.6 | 0.00 | 0.00 | 0.00 | 91 | 1017.0 |
| 20260906125524 | 12 | 0.0 | 0.0 | 0.00 | 0.00 | 0.00 | 90 | 1017.0 | |
| 20260906124517 | 12 | 0.0 | 0.0 | 0.00 | 0.00 | 0.00 | 89 | 1017.1 | |
| 20260906123520 | 12 | 43 | 0.0 | 1.6 | 0.00 | 0.00 | 0.00 | 90 | 1017.0 |
| 20260906122523 | 12 | 260 | 0.0 | 3.2 | 0.00 | 0.00 | 0.00 | 91 | 1017.1 |
| 20260906121516 | 12 | 0.0 | 1.6 | 0.00 | 0.00 | 0.00 | 91 | 1017.0 | |
| 20260906120520 | 12 | 0.0 | 1.6 | 0.00 | 0.00 | 0.00 | 90 | 1017.0 | |
| 20260906115523 | 12 | 0.0 | 0.0 | 0.00 | 0.00 | 0.00 | 90 | 1017.0 | |
| 20260906114516 | 12 | 0.0 | 1.6 | 0.00 | 0.00 | 0.00 | 90 | 1017.0 | |
| 20260906113519 | 12 | 305 | 0.0 | 3.2 | 0.00 | 0.00 | 0.00 | 90 | 1017.0 |
| 20260906112523 | 12 | 102 | 0.0 | 3.2 | 0.00 | 0.00 | 0.00 | 91 | 1017.0 |
| 20260906111516 | 12 | 0.0 | 1.6 | 0.00 | 0.00 | 0.00 | 90 | 1016.8 | |
| 20260906110539 | 12 | 304 | 0.0 | 3.2 | 0.00 | 0.00 | 0.00 | 89 | 1017.0 |
| 20260906105522 | 12 | 108 | 0.0 | 1.6 | 0.00 | 0.00 | 0.00 | 90 | 1017.0 |
| 20260906104515 | 12 | 65 | 0.0 | 1.6 | 0.00 | 0.00 | 0.00 | 92 | 1017.0 |
| 20260906103519 | 12 | 63 | 0.0 | 1.6 | 0.00 | 0.00 | 0.00 | 93 | 1017.0 |
| 20260906102522 | 12 | 129 | 0.0 | 1.6 | 0.00 | 0.00 | 0.00 | 93 | 1017.0 |
| 20260906101515 | 12 | 251 | 0.0 | 3.2 | 0.00 | 0.00 | 0.00 | 92 | 1017.0 |
| 20260906100539 | 12 | 0.0 | 1.6 | 0.00 | 0.00 | 0.00 | 91 | 1017.1 | |
| 20260906095522 | 12 | 0.0 | 0.0 | 0.00 | 0.00 | 0.00 | 92 | 1017.0 | |
| 20260906094525 | 12 | 42 | 0.0 | 1.6 | 0.00 | 0.00 | 0.00 | 90 | 1017.1 |
| 20260906093519 | 13 | 0.0 | 1.6 | 0.00 | 0.00 | 0.00 | 90 | 1017.2 | |
| 20260906092542 | 13 | 52 | 0.0 | 3.2 | 0.00 | 0.00 | 0.00 | 90 | 1017.2 |
| 20260906091525 | 13 | 104 | 0.0 | 1.6 | 0.00 | 0.00 | 0.00 | 89 | 1017.5 |
| 20260906090518 | 13 | 256 | 0.0 | 1.6 | 0.00 | 0.00 | 0.00 | 89 | 1017.5 |
| 20260906085521 | 13 | 314 | 0.0 | 1.6 | 0.00 | 0.00 | 0.00 | 87 | 1017.3 |
| 20260906084524 | 13 | 297 | 0.0 | 3.2 | 0.00 | 0.00 | 0.00 | 87 | 1017.6 |
| 20260906083518 | 13 | 0.0 | 0.0 | 0.00 | 0.00 | 0.00 | 86 | 1017.4 | |
| 20260906082521 | 13 | 280 | 0.0 | 3.2 | 0.00 | 0.00 | 0.00 | 86 | 1017.4 |
| 20260906081524 | 13 | 99 | 0.0 | 1.6 | 0.00 | 0.00 | 0.00 | 87 | 1017.5 |
| 20260906080518 | 13 | 0.0 | 0.0 | 0.00 | 0.00 | 0.00 | 85 | 1017.5 | |
| 20260906075521 | 13 | 0.0 | 0.0 | 0.00 | 0.00 | 0.00 | 84 | 1017.4 | |
| 20260906074524 | 13 | 0.0 | 0.0 | 0.00 | 0.00 | 0.00 | 84 | 1017.3 | |
| 20260906073537 | 13 | 96 | 0.0 | 1.6 | 0.00 | 0.00 | 0.00 | 84 | 1017.5 |
| 20260906072521 | 14 | 0.0 | 1.6 | 0.00 | 0.00 | 0.00 | 83 | 1017.5 | |
| 20260906071544 | 14 | 0.0 | 1.6 | 0.00 | 0.00 | 0.00 | 82 | 1017.5 | |
| 20260906070517 | 15 | 0.0 | 1.6 | 0.00 | 0.00 | 0.00 | 80 | 1017.6 | |
| 20260906065520 | 15 | 69 | 0.0 | 1.6 | 0.00 | 0.00 | 0.00 | 81 | 1017.7 |
| 20260906064524 | 15 | 105 | 0.0 | 3.2 | 0.00 | 0.00 | 0.00 | 82 | 1017.6 |
| 20260906063517 | 14 | 0.0 | 0.0 | 0.00 | 0.00 | 0.00 | 85 | 1017.5 | |
| 20260906062520 | 15 | 0.0 | 3.2 | 0.00 | 0.00 | 0.00 | 85 | 1017.5 | |
| 20260906061524 | 14 | 92 | 0.0 | 3.2 | 0.00 | 0.00 | 0.00 | 89 | 1017.5 |
| 20260906060517 | 15 | 0.0 | 0.0 | 0.00 | 0.00 | 0.00 | 89 | 1017.4 | |
| 20260906055520 | 15 | 0.0 | 1.6 | 0.00 | 0.00 | 0.00 | 89 | 1017.5 | |
| 20260906054523 | 15 | 263 | 0.0 | 3.2 | 0.00 | 0.00 | 0.00 | 89 | 1017.3 |
| 20260906053516 | 15 | 0.0 | 1.6 | 0.00 | 0.00 | 0.00 | 89 | 1017.5 | |
| 20260906052520 | 15 | 0.0 | 0.0 | 0.00 | 0.00 | 0.00 | 88 | 1017.3 | |
| 20260906051523 | 15 | 83 | 0.0 | 1.6 | 0.00 | 0.00 | 0.00 | 89 | 1017.5 |
| 20260906050517 | 15 | 255 | 0.0 | 3.2 | 0.00 | 0.00 | 0.00 | 88 | 1017.4 |
| 20260906045540 | 15 | 0.0 | 1.6 | 0.00 | 0.00 | 0.00 | 87 | 1017.6 | |
| 20260906044543 | 15 | 0.0 | 1.6 | 0.00 | 0.00 | 0.00 | 87 | 1017.7 | |
| 20260906043516 | 15 | 94 | 1.6 | 3.2 | 0.00 | 0.00 | 0.00 | 86 | 1017.5 |
| 20260906042519 | 16 | 25 | 0.0 | 3.2 | 0.00 | 0.00 | 0.00 | 86 | 1017.5 |
| 20260906041522 | 16 | 0.0 | 0.0 | 0.00 | 0.00 | 0.00 | 85 | 1017.4 | |
| 20260906040536 | 16 | 292 | 0.0 | 1.6 | 0.00 | 0.00 | 0.00 | 83 | 1017.6 |
| 20260906035519 | 16 | 106 | 0.0 | 3.2 | 0.00 | 0.00 | 0.00 | 83 | 1017.6 |
| 20260906034523 | 16 | 89 | 0.0 | 1.6 | 0.00 | 0.00 | 0.00 | 83 | 1017.5 |
| 20260906033516 | 16 | 0.0 | 1.6 | 0.00 | 0.00 | 0.00 | 83 | 1017.5 | |
| 20260906032519 | 16 | 35 | 0.0 | 1.6 | 0.00 | 0.00 | 0.00 | 83 | 1017.4 |
| 20260906031523 | 17 | 80 | 0.0 | 1.6 | 0.00 | 0.00 | 0.00 | 82 | 1017.3 |
| 20260906030516 | 17 | 67 | 0.0 | 3.2 | 0.00 | 0.00 | 0.00 | 81 | 1017.4 |
| 20260906025519 | 17 | 345 | 0.0 | 3.2 | 0.00 | 0.00 | 0.00 | 79 | 1017.3 |
| 20260906024523 | 17 | 98 | 0.0 | 1.6 | 0.00 | 0.00 | 0.00 | 77 | 1017.5 |
| 20260906023515 | 17 | 288 | 0.0 | 3.2 | 0.00 | 0.00 | 0.00 | 77 | 1017.2 |
| 20260906022519 | 18 | 59 | 0.0 | 3.2 | 0.00 | 0.00 | 0.00 | 77 | 1017.3 |
| 20260906021522 | 18 | 14 | 0.0 | 3.2 | 0.00 | 0.00 | 0.00 | 76 | 1017.1 |
| 20260906020515 | 18 | 307 | 1.6 | 3.2 | 0.00 | 0.00 | 0.00 | 75 | 1017.2 |
| 20260906015519 | 19 | 204 | 1.6 | 4.8 | 0.00 | 0.00 | 0.00 | 70 | 1017.1 |
| 20260906014522 | 20 | 301 | 1.6 | 6.4 | 0.00 | 0.00 | 0.00 | 67 | 1017.0 |
| 20260906013515 | 21 | 320 | 1.6 | 6.4 | 0.00 | 0.00 | 0.00 | 60 | 1017.0 |
| 20260906012518 | 21 | 265 | 1.6 | 4.8 | 0.00 | 0.00 | 0.00 | 56 | 1016.8 |
| 20260906011522 | 21 | 305 | 1.6 | 4.8 | 0.00 | 0.00 | 0.00 | 56 | 1016.7 |
| 20260906010515 | 21 | 293 | 3.2 | 6.4 | 0.00 | 0.00 | 0.00 | 58 | 1016.6 |
| 20260906005519 | 21 | 286 | 3.2 | 6.4 | 0.00 | 0.00 | 0.00 | 57 | 1016.5 |
| 20260906004522 | 21 | 284 | 3.2 | 6.4 | 0.00 | 0.00 | 0.00 | 57 | 1016.6 |
| 20260906003545 | 21 | 282 | 3.2 | 6.4 | 0.00 | 0.00 | 0.00 | 57 | 1016.7 |
| 20260906002538 | 20 | 284 | 3.2 | 6.4 | 0.00 | 0.00 | 0.00 | 57 | 1016.6 |
| 20260906001522 | 21 | 281 | 3.2 | 9.7 | 0.00 | 0.00 | 0.00 | 58 | 1016.7 |
| 20260906000525 | 20 | 287 | 3.2 | 6.4 | 0.00 | 0.00 | 0.00 | 62 | 1016.6 |
| 20260905235518 | 20 | 282 | 3.2 | 8.0 | 0.00 | 0.00 | 0.00 | 64 | 1016.7 |
| 20260905234541 | 20 | 279 | 3.2 | 6.4 | 0.00 | 0.00 | 0.00 | 63 | 1016.5 |
| 20260905233525 | 21 | 298 | 4.8 | 9.7 | 0.00 | 0.00 | 0.00 | 61 | 1016.7 |
| 20260905232518 | 21 | 287 | 4.8 | 8.0 | 0.00 | 0.00 | 0.00 | 60 | 1016.6 |